»·PEaware :: N22G KBFI-KYKM

N22G :: KBFI-KYKM

FLIGHT INFORMATION

Flight Status: Arrived
Operator: Privately registered:
United States
More flights under this callsign
Pilot: Ryan L. (28399)
Aircraft: CESSNA 510 CITATION MUSTANG
(C510)
More flights by this aircraft type
Origin: KBFI Boeing Field/King Co Intl
United States
Destination: KYKM Yakima Air Term/Mcallister
United States
More flights between these airports :: More routes between these airports
Route: +NRVNA1 NRVNA VAMPS V298 YKM
File this flight plan on PilotEdge
Remarks:
Altitude:
(Current/Filed)
15,000ft
Speed:
(Current/Filed)
330kts
Departed: 19-May-20 01:13 PM
Arrived: 19-May-20 01:50 PM
Distance/Time
Traveled:
92nm/0:37
Distance/Time
To Go:
Arrived

Flight Plot

Page will automatically refresh every two minutes.


Map Options




Map Legend


Flown Route
Filed Route
Departure Airport
Arrival Airport
Navaid (VOR, NDB)
Fix

Horizontal Profiles

Position Reports

Time Latitude Longitude Heading Altitude Ground
Speed
19-May-20 12:46 47.539715 -122.306843 320 23ft 0kts
19-May-20 12:47 47.539715 -122.306843 320 23ft 0kts
19-May-20 12:48 47.539715 -122.306843 320 23ft 0kts
19-May-20 12:49 47.539715 -122.306843 320 23ft 0kts
19-May-20 12:50 47.539715 -122.306843 320 23ft 0kts
19-May-20 12:51 47.539715 -122.306843 320 23ft 0kts
19-May-20 12:52 47.539715 -122.306843 320 23ft 0kts
19-May-20 12:53 47.539715 -122.306843 320 23ft 0kts
19-May-20 12:54 47.539715 -122.306843 320 23ft 0kts
19-May-20 12:55 47.539715 -122.306843 320 23ft 0kts
19-May-20 12:56 47.539715 -122.306843 320 23ft 0kts
19-May-20 12:57 47.539715 -122.306843 320 23ft 0kts
19-May-20 12:58 47.539715 -122.306843 320 23ft 0kts
19-May-20 12:59 47.539715 -122.306843 320 23ft 0kts
19-May-20 13:00 47.539715 -122.306843 320 23ft 0kts
19-May-20 13:01 47.539715 -122.306843 320 23ft 0kts
19-May-20 13:02 47.539715 -122.306843 320 23ft 0kts
19-May-20 13:04 47.539715 -122.306843 320 23ft 0kts
19-May-20 13:05 47.539715 -122.306843 320 23ft 0kts
19-May-20 13:06 47.539715 -122.306843 320 23ft 0kts
19-May-20 13:07 47.539840 -122.307860 309 23ft 0kts
19-May-20 13:08 47.539840 -122.307860 309 23ft 0kts
19-May-20 13:09 47.540372 -122.309037 304 23ft 0kts
19-May-20 13:10 47.540372 -122.309037 304 23ft 0kts
19-May-20 13:11 47.540721 -122.309519 317 23ft 5kts
19-May-20 13:12 47.540558 -122.310757 222 23ft 14kts
19-May-20 13:13 47.523344 -122.296568 150 439ft 159kts
19-May-20 13:14 47.491577 -122.269310 150 1983ft 169kts
19-May-20 13:15 47.452054 -122.235650 150 1999ft 183kts
19-May-20 13:16 47.410408 -122.200093 150 1999ft 185kts
19-May-20 13:17 47.367970 -122.163833 150 1996ft 176kts
19-May-20 13:18 47.319384 -122.122535 150 3784ft 201kts
19-May-20 13:19 47.290244 -122.097581 150 5128ft 191kts
19-May-20 13:20 47.259506 -122.071560 150 6704ft 200kts
19-May-20 13:20 47.226674 -122.043197 133 9074ft 221kts
19-May-20 13:22 47.231049 -121.957423 74 13024ft 207kts
19-May-20 13:23 47.241987 -121.890426 74 15042ft 245kts
19-May-20 13:23 47.255112 -121.811606 74 15020ft 322kts
19-May-20 13:24 47.275496 -121.691021 74 14995ft 334kts
19-May-20 13:26 47.275384 -121.538412 109 15009ft 341kts
19-May-20 13:26 47.243506 -121.424489 106 14999ft 345kts
19-May-20 13:27 47.215237 -121.297892 106 14954ft 347kts
19-May-20 13:28 47.188237 -121.177090 106 14908ft 346kts
19-May-20 13:29 47.160767 -121.055068 106 14909ft 346kts
19-May-20 13:30 47.129471 -120.918025 111 14899ft 347kts
19-May-20 13:31 47.033872 -120.820914 148 14909ft 354kts
19-May-20 13:32 46.938132 -120.742605 148 14908ft 352kts
19-May-20 13:33 46.844223 -120.666143 148 14880ft 291kts
19-May-20 13:34 46.779466 -120.612235 134 14877ft 247kts
19-May-20 13:35 46.756246 -120.515803 104 12472ft 284kts
19-May-20 13:36 46.732567 -120.397954 104 9258ft 310kts
19-May-20 13:37 46.700069 -120.240441 104 5950ft 246kts
19-May-20 13:38 46.680474 -120.146620 104 5902ft 220kts
19-May-20 13:39 46.630050 -120.129424 194 5919ft 232kts
19-May-20 13:40 46.569233 -120.151722 194 5900ft 212kts
19-May-20 13:41 46.534957 -120.201421 234 5885ft 143kts
19-May-20 13:42 46.516715 -120.252151 246 5030ft 153kts
19-May-20 13:43 46.510360 -120.307791 288 4263ft 140kts
19-May-20 13:44 46.522666 -120.360384 291 3538ft 133kts
19-May-20 13:45 46.534643 -120.408327 291 2855ft 113kts
19-May-20 13:46 46.545236 -120.450443 290 2244ft 109kts
19-May-20 13:47 46.555451 -120.491152 290 1667ft 106kts
19-May-20 13:48 46.565209 -120.530143 289 1088ft 88kts
19-May-20 13:49 46.569034 -120.542138 24 1072ft 1kts
19-May-20 13:50 46.568998 -120.540383 90 1069ft 16kts

Navigation Log

Ident Type
Flight plan parsing failed, navigation log unavailable